Foxcroft, Pennsylvania
Current Conditions -  °F | °C
As of 11:54 AM on Thursday 27 Nov 2014 (Local Time) from KPNE Reporting Station
Overcast Overcast  
Wind Chill: 33°   Ceiling: 1800
Heat Index: 39°   Visibility: 10mi
Dew Point: 29°   Wind: 9mph
Humidity: 67%   Direction: 280°W
Pressure: 30.03"   Gusts: NA
Location:  40.1039°N, 75.1072°W
Report Text: KPNE 271654Z AUTO 28008KT 10SM OVC018 04/M02 A3003 RMK AO2 SLP170 T00391017 TSNO
Loading
Personal Weather Stations






























Interactive Weather Map New forecast layout! Learn more

10-Day Weather Forecast

Advertisements
Track Severe Weather on mobile